Time;durP1;ratioP1;P1;durP2;ratioP2;P2;SDS_P1;SDS_P2;PMS_P1;PMS_P2;Temp;Humidity;BMP_temperature;BMP_pressure;BME280_temperature;BME280_humidity;BME280_pressure;Samples;Min_cycle;Max_cycle;Signal;HPM_P1;HPM_P2
2022/06/11 00:01:06;;;;;;;;;;;;;;;;;;5010883;28;20004;-57
2022/06/11 00:03:32;;;;;;;;;;;;;;;;;;5012013;28;19951;-57
2022/06/11 00:05:58;;;;;;;;;;;;;;;;;;5011968;28;19947;-56
2022/06/11 00:08:25;;;;;;;;;;;;;;;;;;5011237;28;19972;-58
2022/06/11 00:10:51;;;;;;;;;;;;;;;;;;5012683;28;20004;-58
2022/06/11 00:13:22;;;;;;;;;;;;;;;;;;5012094;28;19992;-57
2022/06/11 00:15:48;;;;;;;;;;;;;;;;;;5012604;28;19905;-58
2022/06/11 00:18:14;;;;;;;;;;;;;;;;;;5011847;28;19916;-57
2022/06/11 00:20:39;;;;;;;;;;;;;;;;;;5012118;28;19948;-59
2022/06/11 00:23:05;;;;;;;;;;;;;;;;;;5012072;28;19913;-58
2022/06/11 00:25:32;;;;;;;;;;;;;;;;;;5025399;23;19944;-68
2022/06/11 00:27:58;;;;;;;;;;;;;;;;;;5010578;28;19913;-68
2022/06/11 00:30:24;;;;;;;;;;;;;;;;;;5011709;28;20290;-68
2022/06/11 00:32:50;;;;;;;;;;;;;;;;;;5011744;28;19909;-68
2022/06/11 00:35:16;;;;;;;;;;;;;;;;;;4994347;28;19916;-68
2022/06/11 00:37:42;;;;;;;;;;;;;;;;;;5012015;28;19916;-68
2022/06/11 00:40:08;;;;;;;;;;;;;;;;;;5012595;28;19906;-68
2022/06/11 00:42:34;;;;;;;;;;;;;;;;;;5011657;28;19910;-68
2022/06/11 00:45:00;;;;;;;;;;;;;;;;;;5012424;28;20286;-68
2022/06/11 00:47:26;;;;;;;;;;;;;;;;;;4994147;28;19909;-68
2022/06/11 00:49:52;;;;;;;;;;;;;;;;;;5011535;28;19909;-68
2022/06/11 00:52:18;;;;;;;;;;;;;;;;;;5012014;28;19917;-68
2022/06/11 00:54:44;;;;;;;;;;;;;;;;;;4976151;28;19905;-68
2022/06/11 00:57:10;;;;;;;;;;;;;;;;;;5011679;28;20365;-68
2022/06/11 00:59:36;;;;;;;;;;;;;;;;;;5011835;28;20369;-68
2022/06/11 01:02:02;;;;;;;;;;;;;;;;;;5011741;28;19916;-68
2022/06/11 01:04:28;;;;;;;;;;;;;;;;;;5011417;28;19924;-68
2022/06/11 01:06:54;;;;;;;;;;;;;;;;;;5011914;28;20174;-68
2022/06/11 01:09:20;;;;;;;;;;;;;;;;;;5011946;28;19932;-68
2022/06/11 01:11:46;;;;;;;;;;;;;;;;;;5012033;28;19928;-68
2022/06/11 01:14:12;;;;;;;;;;;;;;;;;;4989560;28;19916;-68
2022/06/11 01:16:37;;;;;;;;;;;;;;;;;;4992534;28;19910;-68
2022/06/11 01:19:03;;;;;;;;;;;;;;;;;;5010969;28;19909;-68
2022/06/11 01:21:30;;;;;;;;;;;;;;;;;;4986563;28;19909;-68
2022/06/11 01:23:56;;;;;;;;;;;;;;;;;;5012054;28;19909;-68
2022/06/11 01:26:22;;;;;;;;;;;;;;;;;;4994702;28;19979;-68
2022/06/11 01:28:48;;;;;;;;;;;;;;;;;;4985177;28;19925;-68
2022/06/11 01:31:14;;;;;;;;;;;;;;;;;;5010210;28;19963;-68
2022/06/11 01:33:40;;;;;;;;;;;;;;;;;;5011606;28;20318;-68
2022/06/11 01:36:06;;;;;;;;;;;;;;;;;;4988222;28;20003;-68
2022/06/11 01:38:32;;;;;;;;;;;;;;;;;;5011420;28;20004;-68
2022/06/11 01:40:58;;;;;;;;;;;;;;;;;;4993992;28;19992;-68
2022/06/11 01:43:24;;;;;;;;;;;;;;;;;;5009372;28;20370;-68
2022/06/11 01:45:50;;;;;;;;;;;;;;;;;;5010238;28;19905;-68
2022/06/11 01:48:15;;;;;;;;;;;;;;;;;;5010035;28;19935;-68
2022/06/11 01:50:41;;;;;;;;;;;;;;;;;;5011306;28;20469;-68
2022/06/11 01:53:07;;;;;;;;;;;;;;;;;;5011504;28;19917;-68
2022/06/11 01:55:33;;;;;;;;;;;;;;;;;;5010711;28;19913;-68
2022/06/11 01:58:00;;;;;;;;;;;;;;;;;;5011224;28;19912;-68
2022/06/11 02:00:26;;;;;;;;;;;;;;;;;;5011348;28;20419;-68
2022/06/11 02:02:52;;;;;;;;;;;;;;;;;;5011578;28;19909;-68
2022/06/11 02:05:18;;;;;;;;;;;;;;;;;;5011114;28;19956;-68
2022/06/11 02:07:44;;;;;;;;;;;;;;;;;;5011219;28;19956;-68
2022/06/11 02:10:10;;;;;;;;;;;;;;;;;;5011310;28;19916;-69
2022/06/11 02:12:35;;;;;;;;;;;;;;;;;;4994192;28;20317;-68
2022/06/11 02:15:01;;;;;;;;;;;;;;;;;;5014833;28;19917;-68
2022/06/11 02:17:27;;;;;;;;;;;;;;;;;;5014920;28;19913;-68
2022/06/11 02:19:53;;;;;;;;;;;;;;;;;;5014820;28;19910;-69
2022/06/11 02:22:19;;;;;;;;;;;;;;;;;;5014671;28;19909;-68
2022/06/11 02:24:46;;;;;;;;;;;;;;;;;;4994876;28;20285;-69
2022/06/11 02:27:12;;;;;;;;;;;;;;;;;;5014625;28;19913;-68
2022/06/11 02:29:39;;;;;;;;;;;;;;;;;;5013396;28;19913;-68
2022/06/11 02:32:05;;;;;;;;;;;;;;;;;;5009829;28;19910;-68
2022/06/11 02:34:31;;;;;;;;;;;;;;;;;;5012247;28;19928;-68
2022/06/11 02:36:56;;;;;;;;;;;;;;;;;;5013887;28;19909;-68
2022/06/11 02:39:22;;;;;;;;;;;;;;;;;;5013454;28;19905;-68
2022/06/11 02:41:48;;;;;;;;;;;;;;;;;;5013678;28;19913;-68
2022/06/11 02:44:14;;;;;;;;;;;;;;;;;;5013856;28;19920;-68
2022/06/11 02:46:43;;;;;;;;;;;;;;;;;;5013922;28;19960;-68
2022/06/11 02:49:12;;;;;;;;;;;;;;;;;;5013787;28;19928;-68
2022/06/11 02:51:38;;;;;;;;;;;;;;;;;;5013511;28;19913;-68
2022/06/11 02:54:04;;;;;;;;;;;;;;;;;;5013671;28;19963;-69
2022/06/11 02:56:29;;;;;;;;;;;;;;;;;;5013891;28;20421;-68
2022/06/11 02:58:55;;;;;;;;;;;;;;;;;;5013224;28;20400;-68
2022/06/11 03:01:21;;;;;;;;;;;;;;;;;;5012040;28;19917;-69
2022/06/11 03:03:49;;;;;;;;;;;;;;;;;;5013660;28;19920;-69
2022/06/11 03:06:15;;;;;;;;;;;;;;;;;;4990330;28;20374;-68
2022/06/11 03:08:41;;;;;;;;;;;;;;;;;;5013436;28;19913;-68
2022/06/11 03:11:07;;;;;;;;;;;;;;;;;;5013757;28;19920;-68
2022/06/11 03:13:32;;;;;;;;;;;;;;;;;;4985239;28;20011;-68
2022/06/11 03:15:58;;;;;;;;;;;23.40;55.00;;;;;;5013761;28;19917;-68
2022/06/11 03:18:25;;;;;;;;;;;21.70;59.00;;;;;;4996262;28;19948;-68
2022/06/11 03:20:50;;;;;;;;;;;21.60;59.20;;;;;;4996416;28;19912;-68
2022/06/11 03:23:17;;;;;;;;;;;21.60;59.60;;;;;;4989667;28;19910;-68
2022/06/11 03:25:42;;;;;;;;;;;21.50;60.00;;;;;;5009031;28;19919;-68
2022/06/11 03:28:19;;;;;;;;;;;21.50;59.30;;;;;;5013180;28;19992;-68
2022/06/11 03:30:45;;;;;;;;;;;21.50;59.40;;;;;;5012709;28;20542;-68
2022/06/11 03:33:10;;;;;;;;;;;21.50;59.80;;;;;;5013707;28;19932;-68
2022/06/11 03:35:36;;;;;;;;;;;21.50;59.50;;;;;;5013173;28;20282;-68
2022/06/11 03:38:03;;;;;;;;;;;21.40;59.80;;;;;;5012148;28;20491;-68
2022/06/11 03:40:28;;;;;;;;;;;21.40;60.20;;;;;;5000946;28;19913;-68
2022/06/11 03:42:54;;;;;;;;;;;;;;;;;;5001455;28;19910;-68
2022/06/11 03:45:21;;;;;;;;;;;;;;;;;;5013130;28;19913;-68
2022/06/11 03:47:47;;;;;;;;;;;;;;;;;;4995498;28;20452;-68
2022/06/11 03:50:22;;;;;;;;;;;21.40;60.00;;;;;;4995561;28;19913;-68
2022/06/11 03:52:48;;;;;;;;;;;21.10;60.50;;;;;;4994257;28;19917;-68
2022/06/11 03:55:13;;;;;;;;;;;21.10;60.80;;;;;;5011210;28;19913;-69
2022/06/11 03:57:39;;;;;;;;;;;21.10;60.90;;;;;;5012588;28;20377;-68
2022/06/11 04:00:06;;;;;;;;;;;21.00;61.40;;;;;;5012852;28;20445;-68
2022/06/11 04:02:32;;;;;;;;;;;;;;;;;;5011372;28;19905;-68
2022/06/11 04:04:58;;;;;;;;;;;;;;;;;;5012579;28;19911;-68
2022/06/11 04:07:24;;;;;;;;;;;;;;;;;;5012581;28;20004;-68
2022/06/11 04:09:50;;;;;;;;;;;;;;;;;;5013047;28;20004;-68
2022/06/11 04:12:16;;;;;;;;;;;;;;;;;;5012708;28;20349;-68
2022/06/11 04:14:43;;;;;;;;;;;;;;;;;;5012513;28;19916;-69
2022/06/11 04:17:09;;;;;;;;;;;;;;;;;;5012863;28;19905;-68
2022/06/11 04:19:35;;;;;;;;;;;;;;;;;;4994979;28;19909;-69
2022/06/11 04:22:01;;;;;;;;;;;;;;;;;;5012911;28;19959;-69
2022/06/11 04:24:27;;;;;;;;;;;;;;;;;;5012541;28;19944;-69
2022/06/11 04:26:53;;;;;;;;;;;21.00;61.20;;;;;;4994921;28;19945;-69
2022/06/11 04:29:21;;;;;;;;;;;21.10;63.40;;;;;;4994597;28;19928;-69
2022/06/11 04:31:48;;;;;;;;;;;21.10;62.70;;;;;;5012806;28;19909;-69
2022/06/11 04:34:14;;;;;;;;;;;21.10;62.90;;;;;;4994549;28;19905;-69
2022/06/11 04:36:41;;;;;;;;;;;21.10;63.00;;;;;;5012020;28;19906;-69
2022/06/11 04:39:08;;;;;;;;;;;21.10;62.90;;;;;;5012437;28;19916;-69
2022/06/11 04:41:34;;;;;;;;;;;21.20;62.90;;;;;;5000670;28;19913;-69
2022/06/11 04:43:59;;;;;;;;;;;21.20;62.70;;;;;;5012046;28;19905;-69
2022/06/11 04:46:25;;;;;;;;;;;21.30;62.60;;;;;;5012441;28;19905;-69
2022/06/11 04:48:51;;;;;;;;;;;21.30;62.70;;;;;;5011966;28;19905;-69
2022/06/11 04:51:17;;;;;;;;;;;21.30;62.70;;;;;;5012507;28;19909;-69
2022/06/11 04:53:44;;;;;;;;;;;21.40;62.30;;;;;;5012122;28;19905;-69
2022/06/11 04:56:14;;;;;;;;;;;21.40;62.80;;;;;;5011960;28;19909;-69
2022/06/11 04:58:39;;;;;;;;;;;21.40;63.20;;;;;;5011933;28;19906;-69
2022/06/11 05:01:07;;;;;;;;;;;21.40;62.60;;;;;;5011812;28;20435;-69
2022/06/11 05:03:33;;;;;;;;;;;21.40;63.20;;;;;;4994273;28;19905;-69
2022/06/11 05:06:00;;;;;;;;;;;21.50;63.10;;;;;;5011935;28;20005;-69
2022/06/11 05:08:25;;;;;;;;;;;21.50;63.60;;;;;;4994151;28;19912;-69
2022/06/11 05:10:51;;;;;;;;;;;21.60;62.80;;;;;;5012219;28;19909;-69
2022/06/11 05:13:16;;;;;;;;;;;21.60;63.10;;;;;;5011917;28;19909;-69
2022/06/11 05:15:43;;;;;;;;;;;21.60;63.40;;;;;;5011856;28;19952;-69
2022/06/11 05:18:09;;;;;;;;;;;21.60;63.10;;;;;;5012153;28;19912;-69
2022/06/11 05:20:35;;;;;;;;;;;21.60;63.10;;;;;;5011900;28;20007;-69
2022/06/11 05:23:01;;;;;;;;;;;21.70;63.80;;;;;;5011847;28;20385;-69
2022/06/11 05:25:27;;;;;;;;;;;21.60;63.40;;;;;;5011861;28;20366;-68
2022/06/11 05:27:52;;;;;;;;;;;21.70;63.70;;;;;;5011673;28;19916;-59
2022/06/11 05:30:18;;;;;;;;;;;21.70;63.50;;;;;;5012128;28;19912;-60
2022/06/11 05:32:43;;;;;;;;;;;21.80;63.30;;;;;;5011797;28;20270;-58
2022/06/11 05:35:12;;;;;;;;;;;21.80;63.20;;;;;;5012148;28;20350;-61
2022/06/11 05:37:38;;;;;;;;;;;21.80;63.60;;;;;;5011120;28;19913;-61
2022/06/11 05:40:05;;;;;;;;;;;21.80;64.10;;;;;;5010432;28;19912;-61
2022/06/11 05:42:31;;;;;;;;;;;21.90;63.40;;;;;;5010265;28;19905;-62
2022/06/11 05:44:57;;;;;;;;;;;21.90;63.20;;;;;;5010277;28;19968;-62
2022/06/11 05:47:24;;;;;;;;;;;21.90;63.60;;;;;;5011928;28;20370;-62
2022/06/11 05:49:51;;;;;;;;;;;22.00;63.40;;;;;;4999481;28;19977;-63
2022/06/11 05:52:20;;;;;;;;;;;22.00;63.50;;;;;;5009863;28;20029;-62
2022/06/11 05:54:46;;;;;;;;;;;;;;;;;;5015176;28;19909;-62
2022/06/11 05:57:12;;;;;;;;;;;;;;;;;;5015064;28;19928;-63
2022/06/11 05:59:39;;;;;;;;;;;22.00;63.10;;;;;;5015353;28;20389;-63
2022/06/11 06:02:10;;;;;;;;;;;22.20;63.00;;;;;;5015240;28;19905;-61
2022/06/11 06:04:36;;;;;;;;;;;22.20;62.10;;;;;;5014818;28;19941;-69
2022/06/11 06:07:02;;;;;;;;;;;22.30;62.40;;;;;;5015290;28;19935;-69
2022/06/11 06:09:27;;;;;;;;;;;22.40;62.50;;;;;;5014820;28;19916;-68
2022/06/11 06:11:53;;;;;;;;;;;22.40;62.00;;;;;;5014642;28;20497;-71
2022/06/11 06:14:19;;;;;;;;;;;;;;;;;;5015068;28;19909;-68
2022/06/11 06:16:44;;;;;;;;;;;22.50;62.70;;;;;;5014775;28;19913;-68
2022/06/11 06:19:10;;;;;;;;;;;22.60;62.00;;;;;;4997247;28;19955;-68
2022/06/11 06:21:37;;;;;;;;;;;22.60;61.20;;;;;;5013283;28;20002;-68
2022/06/11 06:24:02;;;;;;;;;;;;;;;;;;4996722;28;19906;-68
2022/06/11 06:26:28;;;;;;;;;;;22.70;61.70;;;;;;5027987;23;19925;-59
2022/06/11 06:28:54;;;;;;;;;;;22.80;61.60;;;;;;5012418;28;19906;-59
2022/06/11 06:31:20;;;;;;;;;;;22.80;61.30;;;;;;4996923;28;19928;-58
2022/06/11 06:33:46;;;;;;;;;;;22.90;61.10;;;;;;5014865;28;19916;-57
2022/06/11 06:36:11;;;;;;;;;;;;;;;;;;5014703;28;20396;-59
2022/06/11 06:38:38;;;;;;;;;;;;;;;;;;5014654;28;19976;-59
2022/06/11 06:41:03;;;;;;;;;;;;;;;;;;5014861;28;19905;-58
2022/06/11 06:43:29;;;;;;;;;;;;;;;;;;5014760;28;20301;-57
2022/06/11 06:45:55;;;;;;;;;;;;;;;;;;4997089;28;20003;-58
2022/06/11 06:48:21;;;;;;;;;;;;;;;;;;5014592;28;19952;-59
2022/06/11 06:50:47;;;;;;;;;;;;;;;;;;5014469;28;20432;-57
2022/06/11 06:53:13;;;;;;;;;;;;;;;;;;5014636;28;19937;-59
2022/06/11 06:55:39;;;;;;;;;;;23.00;61.00;;;;;;5014422;28;19909;-59
2022/06/11 06:58:04;;;;;;;;;;;23.60;57.40;;;;;;5014240;28;19913;-58
2022/06/11 07:00:30;;;;;;;;;;;23.60;58.10;;;;;;5014243;28;20008;-59
2022/06/11 07:02:56;;;;;;;;;;;23.60;57.50;;;;;;5014510;28;19909;-52
2022/06/11 07:05:22;;;;;;;;;;;23.70;57.30;;;;;;5014343;28;19905;-52
2022/06/11 07:07:49;;;;;;;;;;;23.80;57.40;;;;;;4996665;28;20028;-52
2022/06/11 07:10:15;;;;;;;;;;;23.80;56.10;;;;;;4993324;28;19916;-54
2022/06/11 07:12:40;;;;;;;;;;;23.90;56.30;;;;;;4999293;28;19906;-55
2022/06/11 07:15:09;;;;;;;;;;;24.00;55.80;;;;;;4994624;28;19917;-53
2022/06/11 07:17:38;;;;;;;;;;;24.10;56.00;;;;;;4994437;28;19996;-48
2022/06/11 07:20:06;;;;;;;;;;;24.10;55.30;;;;;;4994580;28;19913;-47
2022/06/11 07:22:41;;;;;;;;;;;24.20;54.50;;;;;;4994485;28;19933;-47
2022/06/11 07:25:08;;;;;;;;;;;24.30;53.90;;;;;;4994314;28;19906;-46
2022/06/11 07:27:35;;;;;;;;;;;24.30;52.80;;;;;;4994333;28;20004;-48
2022/06/11 07:30:08;;;;;;;;;;;24.40;53.60;;;;;;4977125;28;19912;-48
2022/06/11 07:32:35;;;;;;;;;;;24.40;51.90;;;;;;4994364;28;19912;-47
2022/06/11 07:35:05;;;;;;;;;;;24.50;52.70;;;;;;4994349;28;19933;-46
2022/06/11 07:37:32;;;;;;;;;;;24.60;52.50;;;;;;4994115;28;20537;-48
2022/06/11 07:39:57;;;;;;;;;;;24.60;52.60;;;;;;4994174;28;19913;-51
2022/06/11 07:42:23;;;;;;;;;;;24.70;52.40;;;;;;4994220;28;19905;-48
2022/06/11 07:44:48;;;;;;;;;;;24.70;52.30;;;;;;4993982;28;19909;-47
2022/06/11 07:47:14;;;;;;;;;;;24.70;52.40;;;;;;4993939;28;20362;-47
2022/06/11 07:49:39;;;;;;;;;;;24.90;52.00;;;;;;4994134;28;19912;-60
2022/06/11 07:52:06;;;;;;;;;;;24.90;51.80;;;;;;4993965;28;19917;-58
2022/06/11 07:54:33;;;;;;;;;;;24.90;55.20;;;;;;4993808;28;20392;-61
2022/06/11 07:56:59;;;;;;;;;;;24.80;54.70;;;;;;4993913;28;19961;-57
2022/06/11 07:59:26;;;;;;;;;;;24.70;55.20;;;;;;4993687;28;19909;-57
2022/06/11 08:01:51;;;;;;;;;;;24.70;53.00;;;;;;4993881;28;19906;-55
2022/06/11 08:04:17;;;;;;;;;;;24.80;53.60;;;;;;4993791;28;20013;-53
2022/06/11 08:06:43;;;;;;;;;;;24.90;50.90;;;;;;4993557;28;19906;-52
2022/06/11 08:09:08;;;;;;;;;;;25.00;52.30;;;;;;4993402;28;19953;-52
2022/06/11 08:11:34;;;;;;;;;;;25.10;52.40;;;;;;4993032;28;19906;-53
2022/06/11 08:14:00;;;;;;;;;;;25.20;51.30;;;;;;4993529;28;19906;-54
2022/06/11 08:16:25;;;;;;;;;;;25.30;51.20;;;;;;4993405;28;20529;-52
2022/06/11 08:18:51;;;;;;;;;;;25.30;51.40;;;;;;4993433;28;19957;-52
2022/06/11 08:21:17;;;;;;;;;;;25.40;51.00;;;;;;4993476;28;19944;-51
2022/06/11 08:23:42;;;;;;;;;;;25.60;50.10;;;;;;4976018;28;20004;-53
2022/06/11 08:26:08;;;;;;;;;;;25.70;50.30;;;;;;4993275;28;19913;-56
2022/06/11 08:28:34;;;;;;;;;;;25.70;50.40;;;;;;4993277;28;20277;-55
2022/06/11 08:31:03;;;;;;;;;;;25.80;50.30;;;;;;4993397;28;20318;-55
2022/06/11 08:33:28;;;;;;;;;;;25.90;49.90;;;;;;4993335;28;19910;-55
2022/06/11 08:35:54;;;;;;;;;;;25.90;50.10;;;;;;4993048;28;19910;-54
2022/06/11 08:38:19;;;;;;;;;;;26.00;50.40;;;;;;4993066;28;19906;-53
2022/06/11 08:40:45;;;;;;;;;;;;;;;;;;4992870;28;19917;-59
2022/06/11 08:43:16;;;;;;;;;;;26.00;50.00;;;;;;4993993;28;20352;-59
2022/06/11 08:45:44;;;;;;;;;;;26.20;50.90;;;;;;4993040;28;19937;-57
2022/06/11 08:48:16;;;;;;;;;;;26.20;49.30;;;;;;4992945;28;19913;-58
2022/06/11 08:50:55;;;;;;;;;;;26.30;48.50;;;;;;4993185;28;19937;-62
2022/06/11 08:53:20;;;;;;;;;;;26.40;48.80;;;;;;4993179;28;19906;-56
2022/06/11 08:55:46;;;;;;;;;;;26.50;48.00;;;;;;4992756;28;19980;-60
2022/06/11 08:58:11;;;;;;;;;;;26.50;48.80;;;;;;5000558;28;19963;-59
2022/06/11 09:00:52;;;;;;;;;;;26.60;48.10;;;;;;5003276;28;20377;-59
2022/06/11 09:03:17;;;;;;;;;;;26.70;46.80;;;;;;4993796;28;19909;-59
2022/06/11 09:05:49;;;;;;;;;;;26.70;47.30;;;;;;4994999;28;20397;-59
2022/06/11 09:08:34;;;;;;;;;;;26.70;46.90;;;;;;4990981;28;19906;-60
2022/06/11 09:10:59;;;;;;;;;;;26.80;46.50;;;;;;4992369;28;19960;-59
2022/06/11 09:13:38;;;;;;;;;;;26.80;46.40;;;;;;4991929;28;19910;-58
2022/06/11 09:16:22;;;;;;;;;;;26.80;46.50;;;;;;4991698;28;20486;-59
2022/06/11 09:18:51;;;;;;;;;;;26.90;46.70;;;;;;4991636;28;20406;-58
2022/06/11 09:21:18;;;;;;;;;;;27.00;46.20;;;;;;4992194;28;20337;-58
2022/06/11 09:23:49;;;;;;;;;;;27.00;45.70;;;;;;4996559;28;20474;-58
2022/06/11 09:26:15;;;;;;;;;;;27.10;46.30;;;;;;4996434;28;20004;-59
2022/06/11 09:28:44;;;;;;;;;;;27.10;46.50;;;;;;4996495;28;19977;-59
2022/06/11 09:31:11;;;;;;;;;;;27.20;45.60;;;;;;4996529;28;19909;-58
2022/06/11 09:33:40;;;;;;;;;;;27.20;45.90;;;;;;4996536;28;19960;-60
2022/06/11 09:36:16;;;;;;;;;;;27.30;45.10;;;;;;4996277;28;19945;-60
2022/06/11 09:38:49;;;;;;;;;;;27.30;45.80;;;;;;4996242;28;19905;-57
2022/06/11 09:41:15;;;;;;;;;;;27.40;45.80;;;;;;4996461;28;19906;-57
2022/06/11 09:43:46;;;;;;;;;;;27.40;45.00;;;;;;4996288;28;20445;-59
2022/06/11 09:46:15;;;;;;;;;;;27.50;45.70;;;;;;4996235;28;19952;-60
2022/06/11 09:48:59;;;;;;;;;;;27.60;45.60;;;;;;4996027;28;19953;-59
2022/06/11 09:51:27;;;;;;;;;;;27.60;44.00;;;;;;4978680;28;19906;-60
2022/06/11 09:54:27;;;;;;;;;;;27.70;44.60;;;;;;4996122;28;19909;-59
2022/06/11 09:56:53;;;;;;;;;;;27.60;44.40;;;;;;4964062;28;19916;-58
2022/06/11 09:59:25;;;;;;;;;;;27.70;45.60;;;;;;4995793;28;19913;-64
2022/06/11 10:01:53;;;;;;;;;;;27.70;45.20;;;;;;4996296;28;19962;-64
2022/06/11 10:04:21;;;;;;;;;;;27.80;45.20;;;;;;4995980;28;19906;-64
2022/06/11 10:06:52;;;;;;;;;;;27.80;44.50;;;;;;4998209;28;19917;-64
2022/06/11 10:09:21;;;;;;;;;;;27.90;44.70;;;;;;4998240;28;20313;-63
2022/06/11 10:11:55;;;;;;;;;;;28.00;43.70;;;;;;4998722;28;19996;-64
2022/06/11 10:14:40;;;;;;;;;;;28.10;43.00;;;;;;4999361;28;20446;-63
2022/06/11 10:17:11;;;;;;;;;;;28.10;43.60;;;;;;4978291;28;19912;-60
2022/06/11 10:19:42;;;;;;;;;;;28.20;43.90;;;;;;4995771;28;19992;-63
2022/06/11 10:22:12;;;;;;;;;;;28.20;43.10;;;;;;4995780;28;19913;-65
2022/06/11 10:24:39;;;;;;;;;;;28.30;43.00;;;;;;4978350;28;20542;-65
2022/06/11 10:27:08;;;;;;;;;;;28.30;43.00;;;;;;4995515;28;20000;-63
2022/06/11 10:29:43;;;;;;;;;;;28.30;43.70;;;;;;4978043;28;19945;-62
2022/06/11 10:32:20;;;;;;;;;;;28.40;44.50;;;;;;4995563;28;19978;-63
2022/06/11 10:34:50;;;;;;;;;;;28.50;43.20;;;;;;4977274;28;20005;-64
2022/06/11 10:37:27;;;;;;;;;;;28.50;43.90;;;;;;5000390;28;20374;-63
2022/06/11 10:39:53;;;;;;;;;;;28.60;42.60;;;;;;5011854;28;19912;-63
2022/06/11 10:42:24;;;;;;;;;;;28.60;43.20;;;;;;5014919;28;19905;-63
2022/06/11 10:44:51;;;;;;;;;;;28.60;42.20;;;;;;5014722;28;19923;-63
2022/06/11 10:47:20;;;;;;;;;;;28.70;42.00;;;;;;4997067;28;19913;-65
2022/06/11 10:49:47;;;;;;;;;;;28.80;41.90;;;;;;5014737;28;19905;-63
2022/06/11 10:52:21;;;;;;;;;;;28.80;42.10;;;;;;5003644;28;19909;-64
2022/06/11 10:54:47;;;;;;;;;;;28.90;42.40;;;;;;4994950;28;19913;-58
2022/06/11 10:57:16;;;;;;;;;;;28.90;41.00;;;;;;4995545;28;19910;-53
2022/06/11 10:59:49;;;;;;;;;;;29.00;42.10;;;;;;5002447;28;20413;-49
2022/06/11 11:02:25;;;;;;;;;;;29.10;43.40;;;;;;5005260;28;19964;-55
2022/06/11 11:04:58;;;;;;;;;;;29.20;41.90;;;;;;5000219;28;19960;-51
2022/06/11 11:07:24;;;;;;;;;;;29.30;40.70;;;;;;5006237;28;20016;-53
2022/06/11 11:09:56;;;;;;;;;;;29.30;41.60;;;;;;5008997;28;19921;-51
2022/06/11 11:12:24;;;;;;;;;;;29.30;41.00;;;;;;4979932;28;20000;-54
2022/06/11 11:15:10;;;;;;;;;;;29.30;41.30;;;;;;4985752;28;19909;-51
2022/06/11 11:17:43;;;;;;;;;;;29.40;40.20;;;;;;4995650;28;19953;-53
2022/06/11 11:20:30;;;;;;;;;;;29.50;40.60;;;;;;5014229;28;20349;-53
2022/06/11 11:22:57;;;;;;;;;;;29.60;37.30;;;;;;5014274;28;19913;-53
2022/06/11 11:25:31;;;;;;;;;;;29.50;39.70;;;;;;5013816;28;19921;-51
2022/06/11 11:27:57;;;;;;;;;;;29.60;40.10;;;;;;5010648;28;19925;-50
2022/06/11 11:30:35;;;;;;;;;;;29.60;40.10;;;;;;4993013;28;19940;-54
2022/06/11 11:33:20;;;;;;;;;;;29.60;40.10;;;;;;5011446;28;20285;-56
2022/06/11 11:35:46;;;;;;;;;;;29.70;39.50;;;;;;5004254;28;19913;-52
2022/06/11 11:38:22;;;;;;;;;;;29.70;38.10;;;;;;5002872;28;19964;-55
2022/06/11 11:40:58;;;;;;;;;;;29.80;38.80;;;;;;4994110;28;19997;-55
2022/06/11 11:43:25;;;;;;;;;;;29.70;36.30;;;;;;5013699;28;19910;-54
2022/06/11 11:45:58;;;;;;;;;;;29.80;38.70;;;;;;5012548;28;20271;-57
2022/06/11 11:48:29;;;;;;;;;;;29.90;38.80;;;;;;5001982;28;19956;-57
2022/06/11 11:50:58;;;;;;;;;;;30.00;39.00;;;;;;4995264;28;20009;-58
2022/06/11 11:53:29;;;;;;;;;;;30.10;38.20;;;;;;4986100;28;19932;-58
2022/06/11 11:56:05;;;;;;;;;;;30.20;36.60;;;;;;4995685;28;20401;-57
2022/06/11 11:58:37;;;;;;;;;;;30.30;38.90;;;;;;5003780;28;19953;-58
2022/06/11 12:01:13;;;;;;;;;;;30.40;38.80;;;;;;5002775;28;19909;-61
2022/06/11 12:03:43;;;;;;;;;;;30.40;34.50;;;;;;5010949;28;19909;-61
2022/06/11 12:06:12;;;;;;;;;;;30.40;37.90;;;;;;5007812;28;19921;-60
2022/06/11 12:08:43;;;;;;;;;;;30.40;38.30;;;;;;5003218;28;19910;-57
2022/06/11 12:11:28;;;;;;;;;;;30.50;38.70;;;;;;5002934;28;20397;-57
2022/06/11 12:14:14;;;;;;;;;;;30.70;37.80;;;;;;5009714;28;20004;-58
2022/06/11 12:16:49;;;;;;;;;;;30.70;36.80;;;;;;5012558;28;20435;-57
2022/06/11 12:19:21;;;;;;;;;;;30.80;36.10;;;;;;5007250;28;19916;-56
2022/06/11 12:21:50;;;;;;;;;;;30.80;37.40;;;;;;5001651;28;19909;-59
2022/06/11 12:24:22;;;;;;;;;;;30.90;37.20;;;;;;4996140;28;20013;-55
2022/06/11 12:26:51;;;;;;;;;;;30.90;37.20;;;;;;5019742;23;19922;-64
2022/06/11 12:29:33;;;;;;;;;;;31.00;37.50;;;;;;5011695;28;19948;-64
2022/06/11 12:32:00;;;;;;;;;;;31.10;38.00;;;;;;5012827;28;19906;-64
2022/06/11 12:34:29;;;;;;;;;;;31.10;37.00;;;;;;5012721;28;19909;-64
2022/06/11 12:37:06;;;;;;;;;;;31.10;36.10;;;;;;5003133;28;19910;-64
2022/06/11 12:39:32;;;;;;;;;;;31.10;36.20;;;;;;5012618;28;19905;-64
2022/06/11 12:42:00;;;;;;;;;;;31.10;36.50;;;;;;5012901;28;19992;-64
2022/06/11 12:44:44;;;;;;;;;;;31.20;36.90;;;;;;5012653;28;19955;-64
2022/06/11 12:47:28;;;;;;;;;;;31.30;36.30;;;;;;5010389;28;20004;-64
2022/06/11 12:49:54;;;;;;;;;;;31.50;37.20;;;;;;5012539;28;19906;-64
2022/06/11 12:52:25;;;;;;;;;;;31.60;37.70;;;;;;5012611;28;20331;-64
2022/06/11 12:55:04;;;;;;;;;;;31.80;37.00;;;;;;5010841;28;19918;-64
2022/06/11 12:57:35;;;;;;;;;;;31.90;37.40;;;;;;5012088;28;20011;-64
2022/06/11 13:00:21;;;;;;;;;;;32.00;37.50;;;;;;4994938;28;19905;-64
2022/06/11 13:03:05;;;;;;;;;;;32.20;36.40;;;;;;4964865;28;20279;-64
2022/06/11 13:05:55;;;;;;;;;;;32.20;36.60;;;;;;5005334;28;20357;-64
2022/06/11 13:08:32;;;;;;;;;;;32.30;37.00;;;;;;4989450;28;19931;-64
2022/06/11 13:11:01;;;;;;;;;;;32.40;35.70;;;;;;5007248;28;20251;-64
2022/06/11 13:13:45;;;;;;;;;;;32.30;32.70;;;;;;5004620;28;19909;-64
2022/06/11 13:16:22;;;;;;;;;;;32.10;32.90;;;;;;5011679;28;19909;-64
2022/06/11 13:18:53;;;;;;;;;;;32.30;34.30;;;;;;5012158;28;19956;-64
2022/06/11 13:21:24;;;;;;;;;;;32.90;35.10;;;;;;4984230;28;19917;-64
2022/06/11 13:23:56;;;;;;;;;;;33.80;35.30;;;;;;4992763;28;19906;-64
2022/06/11 13:26:21;;;;;;;;;;;35.00;31.80;;;;;;4991094;28;19921;-65
2022/06/11 13:29:02;;;;;;;;;;;36.60;31.30;;;;;;5012129;28;19906;-65
2022/06/11 13:31:33;;;;;;;;;;;38.50;29.80;;;;;;5010221;28;20362;-65
2022/06/11 13:34:01;;;;;;;;;;;39.70;28.70;;;;;;4979069;28;19909;-65
2022/06/11 13:36:34;;;;;;;;;;;40.80;25.00;;;;;;5011473;28;20317;-65
2022/06/11 13:39:19;;;;;;;;;;;41.30;26.50;;;;;;4991230;28;19917;-64
2022/06/11 13:42:03;;;;;;;;;;;41.60;25.00;;;;;;4999368;28;20070;-67
2022/06/11 13:44:49;;;;;;;;;;;42.30;24.80;;;;;;5002237;28;19913;-65
2022/06/11 13:47:17;;;;;;;;;;;43.00;23.80;;;;;;5010341;28;19944;-65
2022/06/11 13:49:57;;;;;;;;;;;43.90;25.40;;;;;;5003228;28;19913;-63
2022/06/11 13:55:14;;;;;;;;;;;45.00;23.70;;;;;;4999425;28;19917;-65
2022/06/11 13:57:51;;;;;;;;;;;45.40;23.90;;;;;;5011924;28;19905;-65
2022/06/11 14:00:35;;;;;;;;;;;45.40;23.60;;;;;;5001092;28;20404;-65
2022/06/11 14:03:21;;;;;;;;;;;46.00;24.10;;;;;;4993076;28;20290;-66
2022/06/11 14:05:47;;;;;;;;;;;47.10;24.60;;;;;;5004030;28;19914;-65
2022/06/11 14:08:17;;;;;;;;;;;48.10;23.70;;;;;;4982495;28;19948;-65
2022/06/11 14:10:44;;;;;;;;;;;48.70;23.60;;;;;;5011138;28;19944;-65
2022/06/11 14:13:10;;;;;;;;;;;49.30;22.50;;;;;;5011179;28;20553;-65
2022/06/11 14:15:35;;;;;;;;;;;49.60;22.00;;;;;;5004867;28;20069;-65
2022/06/11 14:18:19;;;;;;;;;;;49.90;21.50;;;;;;5015278;28;20357;-66
2022/06/11 14:20:48;;;;;;;;;;;50.10;23.10;;;;;;4999493;28;20085;-66
2022/06/11 14:23:13;;;;;;;;;;;50.60;22.10;;;;;;5013086;28;19905;-66
2022/06/11 14:25:39;;;;;;;;;;;50.90;23.10;;;;;;5015000;28;20012;-66
2022/06/11 14:28:13;;;;;;;;;;;50.60;22.80;;;;;;5012514;28;19921;-66
2022/06/11 14:30:40;;;;;;;;;;;50.20;21.80;;;;;;5003060;28;19910;-66
2022/06/11 14:33:22;;;;;;;;;;;50.20;21.60;;;;;;5002004;28;19909;-65
2022/06/11 14:35:50;;;;;;;;;;;50.50;21.80;;;;;;5010427;28;19920;-65
2022/06/11 14:38:16;;;;;;;;;;;50.90;22.10;;;;;;5004378;28;19952;-66
2022/06/11 14:40:43;;;;;;;;;;;51.40;21.80;;;;;;5004267;28;20337;-66
2022/06/11 14:43:10;;;;;;;;;;;51.80;22.20;;;;;;5006508;28;20004;-66
2022/06/11 14:45:36;;;;;;;;;;;51.90;21.70;;;;;;5008264;28;19917;-66
2022/06/11 14:48:03;;;;;;;;;;;52.10;21.70;;;;;;5002237;28;19910;-66
2022/06/11 14:50:40;;;;;;;;;;;52.00;21.70;;;;;;5009336;28;19914;-66
2022/06/11 14:53:11;;;;;;;;;;;51.60;21.30;;;;;;5013058;28;19921;-65
2022/06/11 14:55:41;;;;;;;;;;;50.50;21.50;;;;;;5001372;28;20028;-65
2022/06/11 14:58:19;;;;;;;;;;;49.30;22.00;;;;;;5005317;28;19909;-65
2022/06/11 15:00:46;;;;;;;;;;;;;;;;;;4999467;28;19910;-65
2022/06/11 15:03:27;;;;;;;;;;;47.90;22.60;;;;;;4980664;28;19917;-65
2022/06/11 15:06:12;;;;;;;;;;;45.20;24.30;;;;;;5000077;28;19917;-65
2022/06/11 15:08:56;;;;;;;;;;;43.80;24.10;;;;;;5008983;28;20344;-64